Time;durP1;ratioP1;P1;durP2;ratioP2;P2;SDS_P1;SDS_P2;PMS_P1;PMS_P2;Temp;Humidity;BMP_temperature;BMP_pressure;BME280_temperature;BME280_humidity;BME280_pressure;Samples;Min_cycle;Max_cycle;Signal;HPM_P1;HPM_P2
2023/08/26 00:00:16;;;;;;;1.60;1.60;;;;;;;23.80;84.70;95059.06;4343297;33;20177;-65
2023/08/26 00:02:41;;;;;;;1.17;1.13;;;;;;;23.78;84.78;95052.47;4343373;32;20174;-65
2023/08/26 00:05:07;;;;;;;0.97;0.97;;;;;;;23.82;84.71;95066.81;4343000;32;20199;-65
2023/08/26 00:07:32;;;;;;;2.53;1.67;;;;;;;23.84;84.65;95080.75;4342637;32;20174;-65
2023/08/26 00:09:57;;;;;;;2.50;1.73;;;;;;;23.83;84.80;95079.97;4342746;32;20253;-65
2023/08/26 00:12:23;;;;;;;2.43;2.20;;;;;;;23.80;84.82;95075.31;4340957;32;20190;-65
2023/08/26 00:14:48;;;;;;;1.30;1.30;;;;;;;23.83;84.81;95085.41;4339496;33;20169;-65
2023/08/26 00:17:13;;;;;;;2.20;0.90;;;;;;;23.86;84.59;95079.22;4335704;32;20170;-65
2023/08/26 00:19:39;;;;;;;1.50;1.50;;;;;;;23.82;84.73;95056.75;4343022;32;20204;-65
2023/08/26 00:22:05;;;;;;;1.30;1.30;;;;;;;23.74;84.73;95044.34;4344791;32;20229;-65
2023/08/26 00:24:30;;;;;;;2.27;1.60;;;;;;;23.77;84.41;95031.97;4341557;33;20185;-65
2023/08/26 00:26:55;;;;;;;1.83;1.73;;;;;;;23.77;84.28;95013.75;4337621;32;20177;-65
2023/08/26 00:29:21;;;;;;;0.87;0.87;;;;;;;23.71;84.18;95015.28;4324259;32;20169;-65
2023/08/26 00:31:46;;;;;;;1.27;1.27;;;;;;;23.74;84.00;95019.94;4338719;33;20174;-65
2023/08/26 00:34:12;;;;;;;1.67;1.57;;;;;;;23.77;84.25;95026.53;4339760;33;20181;-65
2023/08/26 00:36:37;;;;;;;1.30;1.30;;;;;;;23.73;84.06;95031.94;4339879;32;20178;-66
2023/08/26 00:39:02;;;;;;;4.07;1.93;;;;;;;23.69;83.84;95039.31;4339273;32;20215;-66
2023/08/26 00:41:28;;;;;;;2.40;2.30;;;;;;;23.62;84.08;95042.00;4326774;32;20303;-66
2023/08/26 00:43:56;;;;;;;1.00;1.00;;;;;;;23.50;84.53;95039.59;4341828;32;20288;-66
2023/08/26 00:46:23;;;;;;;1.67;1.57;;;;;;;23.43;85.11;95045.00;4328019;32;20178;-66
2023/08/26 00:48:48;;;;;;;1.40;1.40;;;;;;;23.53;84.80;95044.28;4322575;32;20205;-66
2023/08/26 00:51:25;;;;;;;1.40;1.40;;;;;;;23.60;84.48;95047.03;4333784;32;20170;-65
2023/08/26 00:53:50;;;;;;;1.40;1.37;;;;;;;23.61;84.25;95051.28;4341032;32;20223;-65
2023/08/26 00:56:16;;;;;;;2.13;2.03;;;;;;;23.64;84.05;95050.53;4342186;32;20198;-65
2023/08/26 00:58:42;;;;;;;1.33;1.33;;;;;;;23.58;84.52;95046.63;4342127;32;20238;-65
2023/08/26 01:01:07;;;;;;;1.27;1.27;;;;;;;23.62;84.24;95048.19;4343685;32;20217;-65
2023/08/26 01:03:33;;;;;;;1.00;1.00;;;;;;;23.66;84.15;95059.03;4340018;32;20188;-66
2023/08/26 01:05:58;;;;;;;1.40;1.40;;;;;;;23.59;84.31;95059.78;4328552;32;20268;-66
2023/08/26 01:08:24;;;;;;;2.53;1.57;;;;;;;23.60;84.24;95055.16;4340289;32;20237;-66
2023/08/26 01:11:01;;;;;;;1.37;1.37;;;;;;;23.54;84.42;95064.78;4341637;32;20197;-66
2023/08/26 01:13:47;;;;;;;1.20;1.20;;;;;;;23.52;84.69;95064.41;4339459;32;20275;-66
2023/08/26 01:16:13;;;;;;;1.63;1.53;;;;;;;23.49;85.00;95071.31;4330005;32;20261;-65
2023/08/26 01:18:40;;;;;;;2.30;1.67;;;;;;;23.46;85.47;95068.63;4342241;32;20169;-64
2023/08/26 01:21:08;;;;;;;1.03;1.03;;;;;;;23.45;86.08;95069.78;4328126;33;20190;-65
2023/08/26 01:23:41;;;;;;;0.80;0.80;;;;;;;23.39;86.63;95074.00;4342441;32;20181;-66
2023/08/26 01:26:06;;;;;;;1.67;1.43;;;;;;;23.50;85.76;95080.22;4341241;32;20185;-66
2023/08/26 01:28:32;;;;;;;1.27;1.27;;;;;;;23.52;85.98;95058.97;4333562;32;20181;-65
2023/08/26 01:31:01;;;;;;;1.00;1.00;;;;;;;23.50;86.64;95070.16;4341953;32;20232;-66
2023/08/26 01:33:33;;;;;;;1.43;1.43;;;;;;;23.55;86.04;95088.00;4341374;32;20233;-65
2023/08/26 01:36:03;;;;;;;1.70;1.60;;;;;;;23.57;86.50;95116.28;4330878;32;20291;-65
2023/08/26 01:38:29;;;;;;;2.30;1.47;;;;;;;23.43;87.96;95116.19;4324343;32;20340;-66
2023/08/26 01:40:56;;;;;;;1.97;1.87;;;;;;;23.36;88.14;95101.84;4350432;32;20269;-65
2023/08/26 01:43:23;;;;;;;1.97;1.33;;;;;;;23.38;88.15;95088.69;4342098;32;20169;-65
2023/08/26 01:45:51;;;;;;;1.13;1.13;;;;;;;23.33;88.37;95097.97;4340455;32;20237;-65
2023/08/26 01:48:16;;;;;;;1.67;1.60;;;;;;;23.34;88.31;95128.53;4340643;32;20185;-66
2023/08/26 01:50:42;;;;;;;1.83;1.83;;;;;;;23.36;88.13;95121.56;4329446;32;20166;-66
2023/08/26 01:53:08;;;;;;;1.50;1.50;;;;;;;23.37;88.42;95122.34;4340070;32;20244;-66
2023/08/26 01:55:34;;;;;;;1.57;1.50;;;;;;;23.35;88.71;95121.94;4339917;32;20169;-66
2023/08/26 01:57:59;;;;;;;1.53;1.53;;;;;;;23.34;89.19;95125.81;4333826;32;20302;-66
2023/08/26 02:00:24;;;;;;;1.60;1.27;;;;;;;23.29;89.05;95097.16;4340439;32;20247;-65
2023/08/26 02:02:50;;;;;;;2.73;1.77;;;;;;;23.28;88.91;95085.56;4340229;32;20264;-65
2023/08/26 02:05:18;;;;;;;1.70;1.60;;;;;;;23.18;90.41;95089.00;4340219;32;20175;-66
2023/08/26 02:07:43;;;;;;;1.37;1.33;;;;;;;23.17;90.85;95073.12;4340707;32;20181;-66
2023/08/26 02:10:09;;;;;;;1.10;1.10;;;;;;;23.23;89.58;95058.09;4341177;32;20182;-66
2023/08/26 02:12:36;;;;;;;1.50;1.50;;;;;;;23.32;88.66;95044.97;4341218;32;20169;-66
2023/08/26 02:15:02;;;;;;;1.80;1.70;;;;;;;23.34;89.22;95041.88;4340103;32;20177;-65
2023/08/26 02:17:28;;;;;;;1.40;1.37;;;;;;;23.25;90.21;95023.28;4340107;32;23005;-65
2023/08/26 02:19:54;;;;;;;1.83;1.73;;;;;;;23.23;90.59;95012.84;4341505;32;20177;-66
2023/08/26 02:22:19;;;;;;;1.13;1.13;;;;;;;23.30;89.60;95029.09;4326489;32;20231;-66
2023/08/26 02:24:45;;;;;;;1.40;1.10;;;;;;;23.30;89.76;95031.81;4333541;32;20231;-66
2023/08/26 02:27:11;;;;;;;1.40;1.40;;;;;;;23.33;89.46;95030.25;4341442;32;20182;-66
2023/08/26 02:29:36;;;;;;;1.13;1.13;;;;;;;23.34;89.61;95039.94;4322308;33;20188;-66
2023/08/26 02:32:01;;;;;;;1.37;1.37;;;;;;;23.25;90.99;95050.38;4339926;32;20219;-66
2023/08/26 02:34:27;;;;;;;2.07;1.97;;;;;;;23.33;89.67;95061.97;4340659;32;20173;-65
2023/08/26 02:36:52;;;;;;;1.17;1.17;;;;;;;23.34;89.18;95055.41;4331454;32;20240;-65
2023/08/26 02:39:19;;;;;;;1.60;1.50;;;;;;;23.30;89.76;95045.34;4350981;32;20178;-65
2023/08/26 02:41:44;;;;;;;1.07;1.07;;;;;;;23.31;89.64;95049.59;4336680;32;20196;-65
2023/08/26 02:44:10;;;;;;;1.00;1.00;;;;;;;23.36;89.09;95072.06;4337935;32;20181;-65
2023/08/26 02:46:35;;;;;;;1.13;1.13;;;;;;;23.29;89.90;95089.03;4343889;32;20189;-65
2023/08/26 02:49:01;;;;;;;1.40;1.40;;;;;;;23.27;89.59;95091.38;4341191;33;20178;-66
2023/08/26 02:51:26;;;;;;;0.93;0.93;;;;;;;23.31;89.32;95108.37;4336589;33;20170;-65
2023/08/26 02:53:52;;;;;;;1.80;1.70;;;;;;;23.24;89.60;95119.19;4337865;32;20188;-65
2023/08/26 02:56:17;;;;;;;1.03;1.03;;;;;;;23.20;89.71;95127.31;4325392;32;20200;-65
2023/08/26 02:58:42;;;;;;;0.90;0.90;;;;;;;23.18;88.70;95129.59;4327347;33;20182;-65
2023/08/26 03:01:07;;;;;;;2.33;1.27;;;;;;;23.13;87.80;95129.97;4338846;33;20184;-65
2023/08/26 03:03:33;;;;;;;1.70;1.60;;;;;;;23.13;88.41;95148.13;4337387;32;20237;-65
2023/08/26 03:05:58;;;;;;;0.73;0.73;;;;;;;23.00;87.34;95166.63;4341069;32;20253;-65
2023/08/26 03:08:25;;;;;;;0.87;0.87;;;;;;;22.91;88.36;95187.81;4341080;32;20176;-65
2023/08/26 03:10:58;;;;;;;0.60;0.60;;;;;;;22.89;88.22;95184.69;4341472;32;20259;-66
2023/08/26 03:13:23;;;;;;;1.50;1.40;;;;;;;22.92;88.50;95200.19;4341421;32;20178;-66
2023/08/26 03:15:49;;;;;;;1.90;1.80;;;;;;;22.86;88.60;95199.75;4339601;32;20224;-66
2023/08/26 03:18:14;;;;;;;1.53;1.10;;;;;;;22.87;88.14;95203.22;4336189;32;20253;-65
2023/08/26 03:20:39;;;;;;;0.93;0.93;;;;;;;22.83;88.20;95218.69;4341036;32;20185;-66
2023/08/26 03:23:05;;;;;;;0.87;0.87;;;;;;;22.83;87.92;95205.94;4335859;33;20192;-65
2023/08/26 03:25:30;;;;;;;2.80;1.77;;;;;;;22.77;87.99;95198.50;4340111;32;20178;-65
2023/08/26 03:27:58;;;;;;;1.30;1.20;;;;;;;22.81;87.98;95191.22;4340809;32;20228;-65
2023/08/26 03:30:23;;;;;;;1.43;1.43;;;;;;;22.84;87.53;95190.47;4319513;33;20169;-65
2023/08/26 03:32:50;;;;;;;2.63;1.10;;;;;;;22.77;87.65;95185.78;4335818;32;20185;-65
2023/08/26 03:35:15;;;;;;;1.03;1.03;;;;;;;22.73;87.81;95159.81;4325807;33;20225;-66
2023/08/26 03:37:41;;;;;;;0.80;0.80;;;;;;;22.73;87.11;95181.44;4333047;32;20189;-65
2023/08/26 03:40:08;;;;;;;0.70;0.70;;;;;;;22.70;87.82;95182.97;4323973;33;20208;-65
2023/08/26 03:42:34;;;;;;;1.40;1.40;;;;;;;22.71;87.36;95189.16;4340797;32;20169;-65
2023/08/26 03:44:59;;;;;;;0.70;0.70;;;;;;;22.71;87.25;95181.81;4341886;32;20192;-66
2023/08/26 03:47:24;;;;;;;1.20;1.10;;;;;;;22.70;86.91;95177.56;4326276;33;20178;-65
2023/08/26 03:49:50;;;;;;;5.30;1.27;;;;;;;22.59;86.85;95180.19;4340852;32;20189;-65
2023/08/26 03:52:16;;;;;;;0.83;0.83;;;;;;;22.74;87.20;95193.81;4340706;32;20228;-65
2023/08/26 03:54:41;;;;;;;0.70;0.70;;;;;;;22.72;86.76;95193.41;4331183;32;20178;-65
2023/08/26 03:57:06;;;;;;;0.50;0.50;;;;;;;22.64;86.62;95198.00;4339085;32;20192;-65
2023/08/26 03:59:32;;;;;;;10.93;0.90;;;;;;;22.68;86.44;95198.03;4339365;32;20212;-65
2023/08/26 04:01:57;;;;;;;0.60;0.60;;;;;;;22.66;86.12;95209.22;4326960;32;20166;-66
2023/08/26 04:04:22;;;;;;;1.70;0.90;;;;;;;22.73;86.46;95208.50;4335535;32;20202;-66
2023/08/26 04:06:47;;;;;;;4.37;1.30;;;;;;;22.77;86.35;95220.13;4340559;32;20247;-66
2023/08/26 04:09:13;;;;;;;0.83;0.83;;;;;;;22.73;86.09;95206.56;4327631;32;20185;-65
2023/08/26 04:11:38;;;;;;;0.33;0.33;;;;;;;22.77;86.09;95198.50;4320391;32;20185;-62
2023/08/26 04:14:04;;;;;;;0.53;0.53;;;;;;;22.68;85.34;95192.59;4354784;32;20196;-66
2023/08/26 04:16:29;;;;;;;0.43;0.43;;;;;;;22.74;85.44;95185.72;4343382;32;20166;-65
2023/08/26 04:18:54;;;;;;;0.73;0.73;;;;;;;22.70;85.21;95174.84;4315383;32;20223;-66
2023/08/26 04:21:25;;;;;;;0.67;0.67;;;;;;;22.66;85.54;95181.38;4343276;32;20189;-65
2023/08/26 04:23:50;;;;;;;0.40;0.40;;;;;;;22.66;85.53;95186.78;4343175;32;20208;-66
2023/08/26 04:26:20;;;;;;;0.73;0.73;;;;;;;22.61;85.86;95191.41;4334720;32;20225;-65
2023/08/26 04:28:46;;;;;;;0.83;0.83;;;;;;;22.60;85.66;95189.09;4331957;32;20184;-65
2023/08/26 04:31:11;;;;;;;0.80;0.80;;;;;;;22.49;85.94;95177.37;4342549;32;20169;-65
2023/08/26 04:33:37;;;;;;;0.47;0.47;;;;;;;22.45;85.89;95177.34;4343732;32;20189;-65
2023/08/26 04:36:03;;;;;;;0.50;0.50;;;;;;;22.56;86.12;95170.13;4341669;32;20169;-66
2023/08/26 04:38:28;;;;;;;0.63;0.63;;;;;;;22.58;85.99;95180.56;4342540;32;20268;-66
2023/08/26 04:40:53;;;;;;;0.77;0.77;;;;;;;22.65;85.79;95196.09;4341323;32;20174;-65
2023/08/26 04:43:19;;;;;;;0.83;0.83;;;;;;;22.64;85.48;95189.91;4341708;32;20220;-66
2023/08/26 04:45:44;;;;;;;0.67;0.67;;;;;;;22.65;85.06;95185.25;4342768;32;20173;-65
2023/08/26 04:48:09;;;;;;;0.80;0.80;;;;;;;22.62;85.28;95175.97;4341716;32;20200;-65
2023/08/26 04:50:35;;;;;;;0.60;0.60;;;;;;;22.65;85.23;95174.44;4344164;32;20166;-66
2023/08/26 04:53:05;;;;;;;0.83;0.83;;;;;;;22.69;85.26;95178.72;4341589;32;20189;-65
2023/08/26 04:55:31;;;;;;;0.40;0.40;;;;;;;22.72;84.99;95182.59;4342629;32;20174;-66
2023/08/26 04:57:56;;;;;;;1.00;1.00;;;;;;;22.71;84.58;95178.34;4330237;32;20232;-66
2023/08/26 05:00:22;;;;;;;0.33;0.33;;;;;;;22.70;84.59;95182.19;4343050;32;20184;-65
2023/08/26 05:02:47;;;;;;;1.13;1.13;;;;;;;22.65;84.49;95177.94;4334854;32;20173;-65
2023/08/26 05:05:13;;;;;;;0.50;0.50;;;;;;;22.66;84.68;95194.91;4338186;32;20241;-65
2023/08/26 05:07:38;;;;;;;0.40;0.40;;;;;;;22.58;84.65;95194.09;4338443;32;20252;-62
2023/08/26 05:10:05;;;;;;;0.87;0.87;;;;;;;22.63;84.69;95189.13;4338833;32;20193;-66
2023/08/26 05:12:31;;;;;;;0.73;0.73;;;;;;;22.58;84.66;95199.50;4328300;32;20204;-65
2023/08/26 05:14:56;;;;;;;0.73;0.73;;;;;;;22.48;84.92;95205.56;4335952;32;20242;-66
2023/08/26 05:17:22;;;;;;;0.63;0.63;;;;;;;22.48;85.42;95198.22;4336687;32;20170;-65
2023/08/26 05:19:47;;;;;;;0.87;0.87;;;;;;;22.53;85.07;95197.91;4332170;32;20182;-65
2023/08/26 05:22:13;;;;;;;3.60;1.47;;;;;;;22.45;85.05;95198.19;4341786;32;20185;-65
2023/08/26 05:24:38;;;;;;;0.67;0.67;;;;;;;22.48;85.24;95192.03;4330507;33;20228;-65
2023/08/26 05:27:03;;;;;;;0.73;0.73;;;;;;;22.52;85.35;95182.81;4342247;32;20173;-65
2023/08/26 05:29:29;;;;;;;2.23;0.90;;;;;;;22.53;85.06;95189.78;4340122;32;20170;-65
2023/08/26 05:31:54;;;;;;;1.20;1.10;;;;;;;22.60;84.93;95195.28;4340788;32;20195;-66
2023/08/26 05:34:19;;;;;;;0.30;0.30;;;;;;;22.56;84.94;95207.97;4333989;32;20170;-65
2023/08/26 05:36:45;;;;;;;0.53;0.40;;;;;;;22.57;84.93;95200.66;4328641;32;20173;-65
2023/08/26 05:39:10;;;;;;;0.40;0.40;;;;;;;22.56;84.90;95193.69;4340686;32;20169;-64
2023/08/26 05:41:35;;;;;;;0.53;0.53;;;;;;;22.58;84.75;95196.78;4341800;32;20204;-65
2023/08/26 05:44:01;;;;;;;0.60;0.60;;;;;;;22.58;84.74;95194.84;4341962;32;20186;-65
2023/08/26 05:46:26;;;;;;;0.73;0.73;;;;;;;22.61;84.39;95196.81;4341117;32;20244;-66
2023/08/26 05:48:51;;;;;;;0.33;0.33;;;;;;;22.57;84.54;95206.06;4333850;32;20221;-65
2023/08/26 05:51:17;;;;;;;0.43;0.43;;;;;;;22.43;84.89;95204.00;4327071;32;20182;-66
2023/08/26 05:53:42;;;;;;;0.40;0.40;;;;;;;22.52;84.92;95209.88;4341422;32;20196;-65
2023/08/26 05:56:10;;;;;;;0.43;0.43;;;;;;;22.56;84.66;95213.38;4342535;32;20170;-66
2023/08/26 05:58:36;;;;;;;1.20;1.10;;;;;;;22.58;84.63;95216.50;4341337;32;20181;-65
2023/08/26 06:01:01;;;;;;;0.50;0.50;;;;;;;22.46;85.18;95216.75;4340655;32;20247;-65
2023/08/26 06:03:26;;;;;;;0.40;0.40;;;;;;;22.33;85.50;95220.09;4340567;32;20194;-65
2023/08/26 06:05:52;;;;;;;0.20;0.20;;;;;;;22.34;85.88;95233.25;4339385;32;20228;-65
2023/08/26 06:08:17;;;;;;;0.40;0.40;;;;;;;22.35;86.07;95231.31;4335504;32;20202;-65
2023/08/26 06:10:42;;;;;;;0.60;0.60;;;;;;;22.29;86.20;95236.28;4340882;32;20188;-65
2023/08/26 06:13:08;;;;;;;0.37;0.37;;;;;;;22.33;86.21;95229.00;4327240;32;20177;-65
2023/08/26 06:15:33;;;;;;;1.60;1.50;;;;;;;22.44;85.77;95221.78;4334748;32;20188;-66
2023/08/26 06:17:59;;;;;;;0.57;0.57;;;;;;;22.46;85.57;95222.16;4341527;32;20265;-66
2023/08/26 06:20:26;;;;;;;0.77;0.77;;;;;;;22.34;85.52;95224.34;4340180;32;20192;-65
2023/08/26 06:22:51;;;;;;;1.67;0.87;;;;;;;22.44;85.58;95227.19;4341425;32;20244;-66
2023/08/26 06:25:16;;;;;;;1.03;0.97;;;;;;;22.43;85.80;95228.34;4340558;32;20178;-65
2023/08/26 06:27:42;;;;;;;0.37;0.37;;;;;;;22.41;85.95;95236.03;4341194;32;20174;-65
2023/08/26 06:30:08;;;;;;;0.40;0.40;;;;;;;22.43;85.96;95239.16;4341513;32;20178;-66
2023/08/26 06:32:34;;;;;;;3.70;1.03;;;;;;;22.43;85.70;95243.78;4339642;32;20188;-65
2023/08/26 06:34:59;;;;;;;0.50;0.50;;;;;;;22.49;85.63;95258.50;4341297;32;20193;-65
2023/08/26 06:37:25;;;;;;;0.50;0.50;;;;;;;22.41;85.70;95252.25;4339973;32;20192;-66
2023/08/26 06:39:50;;;;;;;0.40;0.40;;;;;;;22.51;85.82;95248.09;4336715;32;20253;-66
2023/08/26 06:42:15;;;;;;;1.00;0.80;;;;;;;22.53;85.52;95252.00;4335761;32;20209;-65
2023/08/26 06:44:42;;;;;;;3.00;0.73;;;;;;;22.53;85.43;95241.16;4335089;32;20196;-65
2023/08/26 06:47:09;;;;;;;0.40;0.40;;;;;;;22.60;85.21;95237.75;4338832;32;20232;-66
2023/08/26 06:49:34;;;;;;;0.80;0.80;;;;;;;22.58;85.09;95235.44;4344939;32;20166;-65
2023/08/26 06:52:00;;;;;;;0.60;0.60;;;;;;;22.53;85.06;95237.69;4340882;32;20224;-66
2023/08/26 06:54:25;;;;;;;0.30;0.30;;;;;;;22.63;85.00;95235.09;4327447;32;20187;-66
2023/08/26 06:56:50;;;;;;;0.37;0.37;;;;;;;22.66;84.80;95241.66;4331727;32;20188;-66
2023/08/26 06:59:16;;;;;;;0.67;0.67;;;;;;;22.67;84.96;95247.84;4340337;32;20271;-66
2023/08/26 07:01:41;;;;;;;0.60;0.60;;;;;;;22.65;85.69;95244.78;4341361;32;20174;-65
2023/08/26 07:04:07;;;;;;;0.40;0.40;;;;;;;22.74;84.99;95242.53;4341144;32;20177;-65
2023/08/26 07:06:33;;;;;;;0.43;0.43;;;;;;;22.77;85.48;95252.59;4338228;32;20194;-66
2023/08/26 07:09:00;;;;;;;0.57;0.57;;;;;;;22.77;85.71;95237.19;4340687;32;20256;-65
2023/08/26 07:11:25;;;;;;;0.70;0.70;;;;;;;22.81;85.32;95237.22;4339702;32;20249;-65
2023/08/26 07:13:51;;;;;;;0.57;0.57;;;;;;;22.85;85.89;95232.63;4327496;32;20215;-66
2023/08/26 07:16:16;;;;;;;0.33;0.33;;;;;;;22.85;84.98;95217.16;4341950;32;20232;-65
2023/08/26 07:18:42;;;;;;;0.57;0.57;;;;;;;22.87;85.24;95208.63;4345190;32;20201;-66
2023/08/26 07:21:07;;;;;;;0.60;0.60;;;;;;;22.82;85.11;95203.59;4342543;32;20244;-66
2023/08/26 07:23:32;;;;;;;0.40;0.40;;;;;;;22.83;85.58;95189.69;4340965;32;20252;-66
2023/08/26 07:25:58;;;;;;;0.67;0.67;;;;;;;22.82;85.78;95190.06;4340748;32;20180;-66
2023/08/26 07:28:23;;;;;;;4.50;1.23;;;;;;;22.68;85.80;95189.91;4340612;32;20174;-65
2023/08/26 07:30:49;;;;;;;0.97;0.97;;;;;;;22.93;85.16;95199.03;4328257;32;20170;-65
2023/08/26 07:33:14;;;;;;;1.47;1.37;;;;;;;22.87;85.71;95203.22;4339310;32;20195;-65
2023/08/26 07:35:40;;;;;;;0.93;0.67;;;;;;;22.87;84.97;95211.34;4340327;32;20173;-64
2023/08/26 07:38:05;;;;;;;7.53;0.97;;;;;;;22.81;85.02;95210.16;4342058;32;20211;-65
2023/08/26 07:40:30;;;;;;;1.17;1.17;;;;;;;22.88;85.51;95216.38;4339211;32;20253;-65
2023/08/26 07:42:56;;;;;;;0.87;0.87;;;;;;;22.93;85.37;95228.78;4332201;32;20227;-66
2023/08/26 07:45:22;;;;;;;0.40;0.40;;;;;;;22.81;85.44;95232.56;4343924;32;20169;-65
2023/08/26 07:47:48;;;;;;;0.47;0.47;;;;;;;22.78;85.50;95221.72;4337704;32;20213;-65
2023/08/26 07:50:13;;;;;;;0.83;0.83;;;;;;;22.80;85.83;95222.13;4342775;32;20178;-65
2023/08/26 07:52:39;;;;;;;0.60;0.60;;;;;;;22.95;85.46;95215.66;4344731;32;20173;-66
2023/08/26 07:55:05;;;;;;;1.53;1.37;;;;;;;22.91;85.63;95225.69;4342734;32;20257;-65
2023/08/26 07:57:30;;;;;;;2.10;1.23;;;;;;;22.97;85.28;95218.78;4341661;32;20261;-65
2023/08/26 07:59:56;;;;;;;2.53;1.67;;;;;;;23.03;85.26;95227.34;4343708;32;20209;-66
2023/08/26 08:02:21;;;;;;;1.17;1.00;;;;;;;23.04;84.87;95223.47;4341067;32;20181;-65
2023/08/26 08:04:47;;;;;;;0.50;0.50;;;;;;;23.09;84.88;95210.34;4338370;32;20303;-66
2023/08/26 08:07:12;;;;;;;0.87;0.87;;;;;;;23.06;84.71;95221.97;4340164;32;20171;-65
2023/08/26 08:09:38;;;;;;;0.87;0.87;;;;;;;23.06;85.15;95224.66;4328288;32;20217;-65
2023/08/26 08:12:04;;;;;;;2.97;0.97;;;;;;;23.06;84.78;95232.78;4319946;32;20186;-64
2023/08/26 08:14:30;;;;;;;1.13;1.00;;;;;;;23.12;84.46;95228.56;4329649;32;20272;-65
2023/08/26 08:16:55;;;;;;;0.87;0.87;;;;;;;23.27;84.27;95227.53;4328653;32;20205;-65
2023/08/26 08:19:21;;;;;;;10.63;1.23;;;;;;;23.43;83.17;95227.22;4334008;32;20201;-64
2023/08/26 08:21:47;;;;;;;0.77;0.77;;;;;;;23.35;83.50;95227.56;4328836;32;20229;-63
2023/08/26 08:24:13;;;;;;;2.53;1.13;;;;;;;23.21;85.26;95226.31;4322476;32;20178;-65
2023/08/26 08:26:43;;;;;;;0.60;0.60;;;;;;;23.07;85.38;95223.47;4321997;32;20226;-65
2023/08/26 08:29:08;;;;;;;0.87;0.73;;;;;;;22.80;85.62;95219.41;4320006;32;20225;-65
2023/08/26 08:31:33;;;;;;;1.90;1.77;;;;;;;23.09;84.93;95210.34;4327126;32;20189;-65
2023/08/26 08:33:59;;;;;;;0.90;0.90;;;;;;;23.21;84.31;95210.06;4326769;32;20279;-64
2023/08/26 08:36:24;;;;;;;0.97;0.97;;;;;;;23.28;84.21;95203.91;4330939;32;20237;-64
2023/08/26 08:38:51;;;;;;;8.47;7.90;;;;;;;23.03;85.35;95211.88;4315438;33;20313;-65
2023/08/26 08:41:29;;;;;;;23.83;22.03;;;;;;;22.91;86.13;95210.22;4319345;32;20249;-65
2023/08/26 08:44:00;;;;;;;18.90;17.33;;;;;;;23.08;86.51;95203.38;4330714;32;20181;-64
2023/08/26 08:46:26;;;;;;;3.13;3.03;;;;;;;23.07;86.34;95196.41;4332186;32;20177;-64
2023/08/26 08:48:52;;;;;;;8.93;8.27;;;;;;;22.90;86.97;95202.47;4330130;32;20193;-64
2023/08/26 08:51:20;;;;;;;6.40;6.10;;;;;;;23.26;86.59;95196.19;4329382;32;20216;-64
2023/08/26 08:53:46;;;;;;;1.87;1.83;;;;;;;23.46;85.18;95196.69;4327191;32;20194;-64
2023/08/26 08:56:19;;;;;;;2.83;2.73;;;;;;;23.03;86.93;95203.75;4311167;32;20186;-64
2023/08/26 08:58:47;;;;;;;2.50;2.40;;;;;;;23.06;87.09;95211.12;4332231;32;20190;-65
2023/08/26 09:01:15;;;;;;;1.47;1.47;;;;;;;23.27;84.83;95214.00;4316213;32;20195;-65
2023/08/26 09:03:40;;;;;;;2.57;2.47;;;;;;;23.31;84.43;95216.69;4310757;32;20221;-64
2023/08/26 09:06:07;;;;;;;2.50;2.30;;;;;;;23.37;85.13;95220.59;4316969;32;20186;-65
2023/08/26 09:08:33;;;;;;;1.70;1.70;;;;;;;23.41;84.54;95220.63;4332172;32;20197;-64
2023/08/26 09:10:58;;;;;;;2.33;1.47;;;;;;;23.31;84.13;95222.09;4322094;32;26541;-65
2023/08/26 09:13:28;;;;;;;1.10;1.10;;;;;;;22.95;85.44;95227.28;4324733;32;20208;-65
2023/08/26 09:15:53;;;;;;;1.23;1.23;;;;;;;23.00;86.42;95217.25;4332000;32;20236;-65
2023/08/26 09:18:19;;;;;;;2.67;1.53;;;;;;;22.99;86.13;95213.00;4323452;32;20291;-65
2023/08/26 09:20:47;;;;;;;1.00;0.90;;;;;;;23.13;85.60;95213.09;4334368;32;20190;-64
2023/08/26 09:23:13;;;;;;;1.23;1.23;;;;;;;23.26;86.51;95217.06;4328156;32;20190;-64
2023/08/26 09:25:38;;;;;;;1.97;1.87;;;;;;;23.30;86.49;95217.84;4326795;32;20281;-65
2023/08/26 09:28:04;;;;;;;1.00;1.00;;;;;;;23.54;84.49;95224.59;4328687;32;20182;-65
2023/08/26 09:30:30;;;;;;;0.87;0.87;;;;;;;23.71;83.63;95210.38;4332489;32;20298;-63
2023/08/26 09:32:56;;;;;;;0.90;0.90;;;;;;;23.47;83.64;95192.03;4326040;32;20241;-65
2023/08/26 09:35:21;;;;;;;1.03;1.03;;;;;;;23.48;84.29;95172.72;4331609;32;20194;-64
2023/08/26 09:37:55;;;;;;;1.03;1.03;;;;;;;22.88;83.56;95183.91;4326865;32;20239;-64
2023/08/26 09:40:21;;;;;;;2.13;2.03;;;;;;;22.60;84.35;95199.91;4325028;32;20182;-64
2023/08/26 09:42:46;;;;;;;1.23;1.23;;;;;;;22.79;85.21;95210.53;4331084;32;20223;-65
2023/08/26 09:45:17;;;;;;;1.07;1.07;;;;;;;23.10;84.78;95201.09;4330446;32;20182;-64
2023/08/26 09:47:45;;;;;;;1.00;0.73;;;;;;;23.17;85.42;95211.19;4328368;32;20232;-64
2023/08/26 09:50:11;;;;;;;1.60;1.60;;;;;;;23.30;84.61;95198.91;4327838;32;20208;-64
2023/08/26 09:52:48;;;;;;;1.37;1.27;;;;;;;23.34;85.24;95198.91;4332467;32;20186;-65
2023/08/26 09:55:14;;;;;;;1.03;1.03;;;;;;;23.42;85.02;95197.81;4316590;32;20189;-65
2023/08/26 09:57:40;;;;;;;0.80;0.80;;;;;;;23.28;82.16;95196.56;4325045;32;20190;-64
2023/08/26 10:00:10;;;;;;;0.87;0.87;;;;;;;23.37;83.37;95195.47;4330578;32;20193;-64
2023/08/26 10:02:39;;;;;;;1.03;1.03;;;;;;;23.37;83.86;95192.75;4330185;32;20243;-65
2023/08/26 10:05:12;;;;;;;1.33;1.30;;;;;;;23.45;84.86;95180.81;4317059;32;20186;-65
2023/08/26 10:07:39;;;;;;;0.80;0.80;;;;;;;23.34;83.94;95185.38;4329505;32;20248;-64
2023/08/26 10:10:13;;;;;;;1.33;1.23;;;;;;;23.44;83.12;95179.25;4330920;32;20308;-64
2023/08/26 10:12:45;;;;;;;1.47;1.37;;;;;;;23.50;83.13;95175.00;4318606;32;20215;-64
2023/08/26 10:15:14;;;;;;;1.10;1.10;;;;;;;23.57;84.51;95175.09;4329775;32;20181;-63
2023/08/26 10:17:44;;;;;;;1.47;1.13;;;;;;;23.33;83.91;95154.81;4326949;32;20209;-64
2023/08/26 10:20:11;;;;;;;1.33;1.23;;;;;;;23.47;83.48;95146.78;4319870;32;20185;-64
2023/08/26 10:22:37;;;;;;;1.27;1.27;;;;;;;23.19;82.79;95138.50;4326648;32;20229;-65
2023/08/26 10:25:05;;;;;;;1.03;1.03;;;;;;;22.94;83.51;95141.06;4329721;32;20194;-64
2023/08/26 10:27:31;;;;;;;1.17;1.17;;;;;;;23.06;84.96;95140.75;4326171;32;20185;-64
2023/08/26 10:29:59;;;;;;;1.30;1.20;;;;;;;23.20;83.01;95135.41;4327806;32;20308;-64
2023/08/26 10:32:27;;;;;;;0.87;0.87;;;;;;;23.31;82.19;95140.88;4329736;32;20292;-64
2023/08/26 10:34:57;;;;;;;0.93;0.93;;;;;;;23.31;80.74;95132.75;4309772;32;20243;-64
2023/08/26 10:37:32;;;;;;;4.33;3.90;;;;;;;23.25;81.55;95126.94;4325678;32;20194;-66
2023/08/26 10:40:08;;;;;;;5.90;3.03;;;;;;;23.45;81.88;95132.06;4327416;32;20299;-65
2023/08/26 10:42:35;;;;;;;4.47;4.17;;;;;;;23.47;81.62;95125.13;4328823;32;20303;-65
2023/08/26 10:45:02;;;;;;;2.57;1.80;;;;;;;23.54;80.71;95117.03;4326301;32;20289;-64
2023/08/26 10:47:55;;;;;;;1.47;1.43;;;;;;;23.71;81.37;95107.41;4329966;32;20225;-64
2023/08/26 10:50:28;;;;;;;2.73;2.53;;;;;;;23.68;80.34;95104.72;4327387;32;20185;-64
2023/08/26 10:53:12;;;;;;;2.63;2.43;;;;;;;23.74;79.35;95082.25;4329937;32;20203;-64
2023/08/26 10:55:37;;;;;;;1.40;1.40;;;;;;;23.71;78.11;95093.88;4322930;32;20268;-64
2023/08/26 10:58:11;;;;;;;3.07;2.00;;;;;;;23.79;79.44;95083.84;4326096;32;20182;-64
2023/08/26 11:00:41;;;;;;;2.30;2.20;;;;;;;23.55;79.05;95090.72;4323190;32;20196;-65
2023/08/26 11:03:08;;;;;;;4.90;3.60;;;;;;;23.56;78.68;95089.56;4336203;32;20243;-64
2023/08/26 11:05:36;;;;;;;3.70;3.40;;;;;;;23.59;78.85;95078.75;4319273;32;20182;-64
2023/08/26 11:08:02;;;;;;;2.23;1.67;;;;;;;23.71;77.51;95079.53;4320176;32;20190;-65
2023/08/26 11:10:29;;;;;;;5.77;4.07;;;;;;;23.84;76.57;95070.69;4318365;32;20236;-65
2023/08/26 11:12:55;;;;;;;2.67;2.53;;;;;;;23.90;76.03;95071.84;4328941;32;20201;-64
2023/08/26 11:15:21;;;;;;;2.03;1.93;;;;;;;23.97;76.48;95069.16;4321499;32;20293;-65
2023/08/26 11:17:50;;;;;;;1.60;1.50;;;;;;;24.03;75.58;95058.72;4324822;32;20225;-65
2023/08/26 11:20:16;;;;;;;1.50;1.50;;;;;;;24.18;72.34;95059.50;4332191;32;20269;-65
2023/08/26 11:22:45;;;;;;;2.40;2.20;;;;;;;24.17;72.53;95056.00;4332987;32;20223;-65
2023/08/26 11:25:15;;;;;;;1.37;1.27;;;;;;;24.20;73.82;95059.88;4326136;32;20186;-64
2023/08/26 11:27:41;;;;;;;1.07;1.07;;;;;;;24.22;73.58;95063.75;4325546;32;20225;-64
2023/08/26 11:30:08;;;;;;;2.33;2.23;;;;;;;24.14;74.54;95064.13;4329343;32;20193;-63